Aérodrome :
LOGIN :

S'inscrire | Disclaimer

   EN    FR    IT 

 










Légende :    VFR   VFR Marginal   IFR   IFR Intensif   IFR Très Intensif
Visi : 
Plafond : 
>= 8 km
>= 3000ft
5 à 8 km
1000 à 3000 ft
1500m à 5 km
500 à 1000 ft
800 à 1500m
200 à 500 ft
< 800m
< 200 ft
Symboles :   Orages  Brouillard  Fortes neiges  Fortes précipitations  Vent > 20 kt
SIGMETs :   Divers  Orages  Givrage  Turbulence  Onde Orograph.  Cendres Volcan.






- Altitude de l'aérodrome : 126 ft
- Code IATA : TIA


LATI - Rinas Mother Teresa Arpt - Tirana

DERNIER METAR :
  • 151250Z 17007KT 9999 SCT059 OVC074 20/11 Q1015 NOSIG

METARs EXPIRÉS :
  • 151220Z 16007KT 9999 FEW051 BKN062 20/11 Q1014 NOSIG
  • 151150Z 15008KT 9999 BKN059 OVC074 20/10 Q1014 NOSIG
  • 151120Z 17007KT 9999 BKN059 20/11 Q1015 NOSIG
  • 151050Z 16007KT 9999 BKN061 20/10 Q1015 NOSIG
  • 151020Z 17004KT 130V200 9999 SCT062 BKN090 20/11 Q1015 NOSIG

TAF TAF LATI
Valide du 15 à 12h jusqu'au 16 à 12h UTC


151100Z 1512/1612 16008KT 9999 SCT070 TX22/1612Z TN10/1605Z



MET'MAP, la Météo Aéronautique d'un coup d'oeil ! - Copyright ORBIFLY Décembre 2007 - Disclaimer

ORBIFLY MET'MAP TEAM :

Programmation & Développement : Alexandra Zaïnal
Conception & Développement : Baudouin d'Aumeries
Co-Programmation & Développement : Marc-Olivier Méhu
Soutien technique & logistique : Manuel Goepfert

Contact : metmap@orbifly.com




SOURCES & CREDITS :

   NOAA